createdAt,value
2023-05-08T00:02:18.793Z,13.88
2023-05-08T00:04:47.102Z,13.80
2023-05-08T00:07:15.325Z,13.80
2023-05-08T00:09:43.576Z,13.82
2023-05-08T00:12:11.892Z,13.77
2023-05-08T00:14:40.121Z,13.68
2023-05-08T00:17:08.638Z,13.74
2023-05-08T00:19:38.289Z,13.76
2023-05-08T00:22:06.499Z,13.78
2023-05-08T00:24:34.829Z,13.84
2023-05-08T00:27:03.067Z,13.78
2023-05-08T00:29:31.332Z,13.82
2023-05-08T00:31:59.816Z,13.84
2023-05-08T00:34:28.037Z,13.75
2023-05-08T00:36:58.477Z,13.80
2023-05-08T00:39:26.782Z,13.73
2023-05-08T00:41:55.258Z,13.85
2023-05-08T00:44:23.527Z,13.89
2023-05-08T00:46:52.208Z,13.92
2023-05-08T00:49:20.672Z,13.92
2023-05-08T00:51:52.546Z,13.90
2023-05-08T00:54:22.968Z,13.90
2023-05-08T00:56:53.196Z,13.89
2023-05-08T00:59:22.836Z,13.79
2023-05-08T01:01:53.138Z,13.80
2023-05-08T01:04:25.661Z,13.69
2023-05-08T01:06:53.932Z,13.64
2023-05-08T01:09:23.501Z,13.54
2023-05-08T01:12:11.601Z,13.50
2023-05-08T01:14:52.515Z,13.48
2023-05-08T01:17:30.943Z,13.47
2023-05-08T01:20:17.717Z,13.37
2023-05-08T01:23:06.186Z,13.33
2023-05-08T01:25:57.238Z,13.38
2023-05-08T01:28:43.502Z,13.23
2023-05-08T01:31:18.530Z,13.14
2023-05-08T01:33:56.036Z,13.21
2023-05-08T01:36:30.412Z,13.11
2023-05-08T01:39:09.590Z,13.07
2023-05-08T01:41:38.789Z,13.02
2023-05-08T01:44:14.709Z,13.06
2023-05-08T01:46:46.230Z,13.04
2023-05-08T01:49:21.870Z,12.93
2023-05-08T01:52:02.163Z,12.90
2023-05-08T01:54:40.470Z,12.82
2023-05-08T01:57:10.564Z,12.88
2023-05-08T01:59:40.036Z,12.79
2023-05-08T02:02:09.761Z,12.78
2023-05-08T02:04:41.060Z,12.73
2023-05-08T02:07:09.429Z,12.70
2023-05-08T02:09:39.343Z,12.74
2023-05-08T02:12:09.445Z,12.67
2023-05-08T02:14:39.432Z,12.72
2023-05-08T02:17:10.887Z,12.65
2023-05-08T02:19:42.086Z,12.62
2023-05-08T02:22:11.460Z,12.73
2023-05-08T02:24:39.949Z,12.69
2023-05-08T02:27:10.532Z,12.61
2023-05-08T02:29:39.939Z,12.57
2023-05-08T02:32:09.957Z,12.69
2023-05-08T02:34:48.187Z,12.69
2023-05-08T02:37:29.721Z,12.64
2023-05-08T02:39:59.630Z,12.70
2023-05-08T02:42:28.088Z,12.77
2023-05-08T02:44:56.347Z,12.78
2023-05-08T02:47:29.640Z,12.77
2023-05-08T02:50:14.628Z,12.75
2023-05-08T02:52:47.317Z,12.77
2023-05-08T02:55:27.002Z,12.77
2023-05-08T02:58:04.098Z,12.71
2023-05-08T03:00:34.380Z,12.64
2023-05-08T03:03:12.975Z,12.63
2023-05-08T03:05:48.671Z,12.73
2023-05-08T03:08:19.612Z,12.73
2023-05-08T03:10:52.343Z,12.80
2023-05-08T03:13:22.023Z,12.76
2023-05-08T03:15:55.621Z,12.71
2023-05-08T03:18:31.089Z,12.61
2023-05-08T03:21:01.529Z,12.58
2023-05-08T03:23:31.922Z,12.65
2023-05-08T03:26:02.166Z,12.62
2023-05-08T03:28:31.898Z,12.57
2023-05-08T03:31:03.040Z,12.65
2023-05-08T03:33:32.459Z,12.58
2023-05-08T03:36:02.926Z,12.67
2023-05-08T03:38:31.250Z,12.58
2023-05-08T03:41:00.667Z,12.67
2023-05-08T03:43:30.601Z,12.60
2023-05-08T03:45:59.991Z,12.49
2023-05-08T03:48:29.436Z,12.56
2023-05-08T03:50:58.635Z,12.43
2023-05-08T03:53:28.363Z,12.58
2023-05-08T03:55:58.298Z,12.56
2023-05-08T03:58:32.988Z,12.46
2023-05-08T04:01:08.859Z,12.45
2023-05-08T04:03:51.161Z,12.50
2023-05-08T04:06:30.736Z,12.52
2023-05-08T04:09:09.495Z,12.56
2023-05-08T04:11:45.346Z,12.48
2023-05-08T04:14:17.861Z,12.44
2023-05-08T04:16:50.980Z,12.49
2023-05-08T04:19:25.206Z,12.38
2023-05-08T04:21:58.543Z,12.47
2023-05-08T04:24:30.234Z,12.42
2023-05-08T04:26:59.633Z,12.43
2023-05-08T04:29:28.462Z,12.46
2023-05-08T04:31:58.279Z,12.52
2023-05-08T04:34:27.116Z,12.61
2023-05-08T04:36:55.928Z,12.53
2023-05-08T04:39:24.176Z,12.52
2023-05-08T04:41:55.881Z,12.50
2023-05-08T04:44:24.244Z,12.56
2023-05-08T04:46:52.710Z,12.55
2023-05-08T04:49:20.935Z,12.55
2023-05-08T04:51:49.246Z,12.57
2023-05-08T04:54:17.464Z,12.56
2023-05-08T04:56:48.629Z,12.60
2023-05-08T04:59:18.631Z,12.66
2023-05-08T05:01:48.318Z,12.67
2023-05-08T05:04:16.737Z,12.69
2023-05-08T05:06:45.049Z,12.63
2023-05-08T05:09:14.225Z,12.72
2023-05-08T05:11:42.569Z,12.67
2023-05-08T05:14:11.064Z,12.64
2023-05-08T05:16:40.802Z,12.63
2023-05-08T05:19:09.277Z,12.70
2023-05-08T05:21:38.126Z,12.72
2023-05-08T05:24:07.732Z,12.72
2023-05-08T05:26:37.381Z,12.77
2023-05-08T05:29:06.035Z,12.78
2023-05-08T05:31:34.439Z,12.72
2023-05-08T05:34:04.291Z,12.84
2023-05-08T05:36:32.618Z,12.88
2023-05-08T05:39:00.985Z,12.88
2023-05-08T05:41:29.233Z,12.89
2023-05-08T05:43:57.544Z,12.89
2023-05-08T05:46:31.163Z,13.00
2023-05-08T05:49:01.143Z,13.01
2023-05-08T05:51:31.563Z,13.06
2023-05-08T05:53:59.853Z,13.06
2023-05-08T05:56:28.268Z,13.17
2023-05-08T05:58:56.995Z,13.22
2023-05-08T06:01:25.433Z,13.32
2023-05-08T06:03:53.755Z,13.49
2023-05-08T06:06:22.324Z,13.53
2023-05-08T06:08:51.933Z,13.58
2023-05-08T06:11:20.136Z,13.52
2023-05-08T06:13:50.389Z,13.63
2023-05-08T06:16:20.746Z,13.66
2023-05-08T06:18:49.090Z,13.70
2023-05-08T06:21:17.306Z,13.69
2023-05-08T06:23:45.562Z,13.73
2023-05-08T06:26:15.231Z,13.82
2023-05-08T06:28:43.500Z,13.78
2023-05-08T06:31:11.873Z,13.75
2023-05-08T06:33:40.166Z,13.73
2023-05-08T06:36:08.892Z,13.73
2023-05-08T06:38:37.123Z,13.61
2023-05-08T06:41:05.416Z,13.63
2023-05-08T06:43:35.046Z,13.56
2023-05-08T06:46:03.899Z,13.51
2023-05-08T06:48:32.198Z,13.55
2023-05-08T06:51:00.533Z,13.48
2023-05-08T06:53:28.830Z,13.54
2023-05-08T06:55:57.938Z,13.58
2023-05-08T06:58:26.400Z,13.56
2023-05-08T07:00:56.047Z,13.60
2023-05-08T07:03:24.330Z,13.60
2023-05-08T07:05:52.564Z,13.76
2023-05-08T07:08:21.187Z,13.82
2023-05-08T07:10:51.794Z,13.88
2023-05-08T07:13:22.152Z,13.73
2023-05-08T07:15:50.513Z,13.88
2023-05-08T07:18:20.094Z,13.75
2023-05-08T07:20:48.296Z,13.88
2023-05-08T07:23:16.782Z,14.08
2023-05-08T07:25:45.134Z,14.14
2023-05-08T07:28:13.349Z,14.32
2023-05-08T07:30:41.551Z,14.24
2023-05-08T07:33:09.892Z,14.38
2023-05-08T07:35:41.348Z,14.27
2023-05-08T07:38:09.831Z,14.52
2023-05-08T07:40:38.144Z,15.06
2023-05-08T07:43:06.319Z,15.15
2023-05-08T07:45:34.890Z,15.25
2023-05-08T07:48:03.310Z,15.30
2023-05-08T07:50:31.508Z,15.23
2023-05-08T07:53:01.132Z,15.26
2023-05-08T07:55:29.409Z,15.33
2023-05-08T07:57:57.593Z,15.46
2023-05-08T08:00:27.427Z,15.48
2023-05-08T08:02:55.851Z,15.57
2023-05-08T08:05:24.329Z,15.56
2023-05-08T08:07:52.580Z,15.48
2023-05-08T08:10:22.335Z,15.46
2023-05-08T08:12:50.626Z,15.70
2023-05-08T08:15:19.026Z,15.72
2023-05-08T08:17:47.284Z,15.57
2023-05-08T08:20:15.745Z,15.65
2023-05-08T08:22:43.964Z,15.73
2023-05-08T08:25:12.361Z,15.83
2023-05-08T08:27:42.166Z,16.15
2023-05-08T08:30:17.435Z,16.10
2023-05-08T08:32:47.068Z,16.06
2023-05-08T08:35:15.812Z,16.11
2023-05-08T08:37:44.843Z,15.98
2023-05-08T08:40:13.504Z,16.04
2023-05-08T08:42:43.153Z,16.01
2023-05-08T08:45:12.504Z,15.84
2023-05-08T08:47:45.342Z,15.81
2023-05-08T08:50:15.829Z,15.63
2023-05-08T08:52:49.948Z,15.69
2023-05-08T08:55:19.558Z,15.99
2023-05-08T08:57:57.777Z,16.05
2023-05-08T09:00:31.122Z,15.82
2023-05-08T09:02:59.483Z,15.88
2023-05-08T09:05:27.855Z,16.14
2023-05-08T09:07:56.777Z,15.98
2023-05-08T09:10:26.079Z,15.98
2023-05-08T09:12:55.787Z,15.89
2023-05-08T09:15:24.046Z,15.97
2023-05-08T09:17:52.304Z,16.03
2023-05-08T09:20:20.901Z,16.21
2023-05-08T09:22:50.078Z,16.01
2023-05-08T09:25:19.158Z,16.11
2023-05-08T09:27:47.480Z,16.26
2023-05-08T09:30:17.163Z,16.21
2023-05-08T09:32:45.940Z,16.17
2023-05-08T09:35:14.640Z,16.06
2023-05-08T09:37:44.168Z,16.03
2023-05-08T09:40:19.774Z,15.90
2023-05-08T09:42:49.766Z,15.76
2023-05-08T09:45:31.177Z,15.72
2023-05-08T09:47:59.857Z,15.83
2023-05-08T09:50:28.316Z,15.67
2023-05-08T09:52:56.638Z,16.04
2023-05-08T09:55:24.897Z,16.27
2023-05-08T09:57:56.472Z,16.48
2023-05-08T10:00:26.191Z,16.65
2023-05-08T10:03:00.981Z,16.45
2023-05-08T10:05:31.835Z,16.27
2023-05-08T10:08:18.414Z,16.36
2023-05-08T10:10:47.323Z,16.33
2023-05-08T10:13:15.633Z,16.41
2023-05-08T10:15:44.910Z,16.45
2023-05-08T10:18:17.566Z,16.65
2023-05-08T10:20:49.922Z,16.58
2023-05-08T10:23:19.243Z,16.95
2023-05-08T10:25:49.113Z,16.84
2023-05-08T10:28:23.932Z,16.82
2023-05-08T10:30:53.239Z,16.73
2023-05-08T10:33:31.473Z,16.58
2023-05-08T10:36:00.116Z,16.65
2023-05-08T10:38:29.019Z,16.84
2023-05-08T10:41:01.433Z,16.92
2023-05-08T10:43:31.427Z,16.78
2023-05-08T10:46:03.240Z,16.77
2023-05-08T10:48:40.427Z,16.71
2023-05-08T10:51:15.181Z,16.81
2023-05-08T10:53:52.126Z,16.96
2023-05-08T10:56:27.268Z,17.02
2023-05-08T10:58:57.621Z,17.26
2023-05-08T11:01:26.745Z,17.36
2023-05-08T11:03:56.948Z,17.25
2023-05-08T11:06:45.236Z,17.32
2023-05-08T11:09:21.404Z,17.26
2023-05-08T11:11:59.169Z,17.21
2023-05-08T11:14:29.263Z,17.07
2023-05-08T11:17:08.448Z,17.11
2023-05-08T11:19:39.172Z,17.17
2023-05-08T11:22:24.870Z,17.16
2023-05-08T11:24:58.565Z,17.32
2023-05-08T11:27:34.729Z,17.73
2023-05-08T11:30:25.714Z,17.92
2023-05-08T11:33:15.557Z,18.32
2023-05-08T11:35:51.526Z,18.94
2023-05-08T11:38:22.372Z,19.29
2023-05-08T11:40:56.740Z,19.32
2023-05-08T11:43:33.035Z,19.03
2023-05-08T11:46:04.334Z,18.88
2023-05-08T11:48:33.529Z,18.84
2023-05-08T11:51:04.453Z,18.80
2023-05-08T11:53:33.488Z,18.58
2023-05-08T11:56:01.796Z,18.20
2023-05-08T11:58:31.022Z,18.25
2023-05-08T12:00:59.401Z,18.00
2023-05-08T12:03:27.869Z,18.47
2023-05-08T12:05:58.606Z,18.80
2023-05-08T12:08:28.565Z,18.58
2023-05-08T12:10:58.282Z,18.78
2023-05-08T12:13:28.442Z,18.57
2023-05-08T12:15:58.926Z,18.94
2023-05-08T12:18:29.675Z,19.38
2023-05-08T12:20:59.361Z,19.23
2023-05-08T12:23:30.458Z,19.14
2023-05-08T12:26:00.816Z,19.38
2023-05-08T12:28:29.294Z,19.40
2023-05-08T12:30:57.703Z,19.27
2023-05-08T12:33:26.146Z,19.51
2023-05-08T12:35:54.578Z,19.72
2023-05-08T12:38:28.880Z,19.45
2023-05-08T12:40:57.487Z,19.87
2023-05-08T12:43:32.984Z,19.90
2023-05-08T12:46:01.844Z,19.57
2023-05-08T12:48:30.120Z,19.51
2023-05-08T12:51:04.316Z,19.68
2023-05-08T12:53:35.679Z,19.91
2023-05-08T12:56:06.169Z,20.06
2023-05-08T12:58:35.682Z,20.63
2023-05-08T13:01:10.179Z,20.91
2023-05-08T13:03:38.961Z,20.98
2023-05-08T13:06:07.677Z,20.29
2023-05-08T13:08:38.876Z,19.95
2023-05-08T13:11:07.878Z,19.69
2023-05-08T13:13:38.012Z,19.89
2023-05-08T13:16:08.008Z,20.07
2023-05-08T13:18:37.254Z,20.84
2023-05-08T13:21:05.845Z,21.32
2023-05-08T13:23:34.041Z,21.19
2023-05-08T13:26:04.158Z,20.64
2023-05-08T13:28:32.390Z,20.10
2023-05-08T13:31:00.622Z,20.10
2023-05-08T13:33:28.831Z,19.37
2023-05-08T13:35:57.186Z,19.45
2023-05-08T13:38:25.412Z,20.01
2023-05-08T13:40:53.617Z,20.49
2023-05-08T13:43:23.219Z,20.56
2023-05-08T13:45:51.580Z,20.45
2023-05-08T13:48:19.835Z,20.41
2023-05-08T13:50:48.091Z,20.49
2023-05-08T13:53:16.346Z,20.06
2023-05-08T13:55:44.563Z,20.09
2023-05-08T13:58:12.804Z,19.52
2023-05-08T14:00:42.453Z,19.43
2023-05-08T14:03:10.744Z,19.63
2023-05-08T14:05:39.027Z,19.54
2023-05-08T14:08:07.242Z,19.42
2023-05-08T14:10:35.539Z,19.44
2023-05-08T14:13:03.815Z,19.05
2023-05-08T14:15:36.845Z,19.03
2023-05-08T14:18:07.392Z,19.37
2023-05-08T14:20:35.788Z,19.07
2023-05-08T14:23:04.033Z,19.55
2023-05-08T14:25:32.298Z,19.33
2023-05-08T14:28:00.618Z,19.07
2023-05-08T14:30:28.856Z,18.96
2023-05-08T14:32:57.140Z,18.70
2023-05-08T14:35:26.817Z,18.64
2023-05-08T14:37:55.010Z,18.06
2023-05-08T14:40:24.598Z,18.28
2023-05-08T14:42:52.975Z,18.34
2023-05-08T14:45:21.378Z,18.36
2023-05-08T14:47:49.838Z,18.61
2023-05-08T14:50:18.284Z,18.35
2023-05-08T14:52:47.827Z,18.15
2023-05-08T14:55:20.951Z,17.84
2023-05-08T14:57:49.589Z,17.49
2023-05-08T15:00:19.191Z,17.52
2023-05-08T15:02:48.593Z,17.69
2023-05-08T15:08:07.171Z,17.79
2023-05-08T15:10:35.459Z,17.46
2023-05-08T15:13:03.756Z,17.49
2023-05-08T15:15:32.017Z,17.63
2023-05-08T15:18:00.527Z,17.69
2023-05-08T15:20:28.838Z,17.79
2023-05-08T15:22:57.028Z,17.92
2023-05-08T15:25:26.769Z,17.83
2023-05-08T15:27:54.992Z,17.76
2023-05-08T15:30:23.345Z,17.59
2023-05-08T15:32:52.761Z,17.84
2023-05-08T15:35:21.116Z,18.00
2023-05-08T15:37:49.341Z,18.25
2023-05-08T15:40:17.709Z,18.53
2023-05-08T15:42:47.349Z,19.18
2023-05-08T15:45:16.593Z,19.30
2023-05-08T15:47:44.973Z,19.95
2023-05-08T15:50:13.201Z,20.02
2023-05-08T15:52:41.522Z,19.94
2023-05-08T15:55:11.017Z,19.95
2023-05-08T15:57:39.396Z,19.79
2023-05-08T16:00:10.609Z,19.45
2023-05-08T16:02:38.889Z,19.27
2023-05-08T16:05:07.904Z,18.82
2023-05-08T16:07:36.156Z,18.61
2023-05-08T16:10:06.758Z,18.21
2023-05-08T16:12:35.645Z,17.96
2023-05-08T16:15:03.940Z,17.88
2023-05-08T16:17:33.863Z,17.59
2023-05-08T16:20:03.816Z,17.51
2023-05-08T16:22:32.258Z,17.34
2023-05-08T16:25:00.550Z,17.43
2023-05-08T16:27:29.688Z,17.63
2023-05-08T16:29:57.958Z,17.68
2023-05-08T16:32:27.209Z,17.77
2023-05-08T16:34:56.888Z,17.96
2023-05-08T16:37:25.183Z,18.05
2023-05-08T16:39:53.414Z,18.00
2023-05-08T16:42:21.626Z,17.89
2023-05-08T16:44:49.960Z,17.96
2023-05-08T16:47:18.327Z,17.80
2023-05-08T16:49:46.655Z,17.79
2023-05-08T16:52:16.344Z,17.52
2023-05-08T16:54:44.612Z,17.46
2023-05-08T16:57:12.814Z,17.67
2023-05-08T16:59:41.425Z,17.60
2023-05-08T17:02:09.821Z,17.50
2023-05-08T17:04:38.049Z,17.51
2023-05-08T17:07:07.494Z,17.51
2023-05-08T17:09:37.085Z,17.64
2023-05-08T17:12:05.887Z,17.62
2023-05-08T17:14:34.169Z,17.55
2023-05-08T17:17:02.392Z,17.59
2023-05-08T17:19:30.626Z,17.34
2023-05-08T17:21:59.807Z,17.36
2023-05-08T17:24:28.305Z,17.32
2023-05-08T17:26:57.976Z,17.26
2023-05-08T17:29:26.289Z,17.41
2023-05-08T17:31:54.590Z,17.38
2023-05-08T17:34:23.254Z,17.23
2023-05-08T17:36:52.865Z,17.22
2023-05-08T17:39:22.659Z,17.43
2023-05-08T17:41:51.827Z,17.47
2023-05-08T17:44:21.454Z,17.41
2023-05-08T17:46:49.720Z,17.55
2023-05-08T17:49:19.450Z,17.54
2023-05-08T17:51:47.943Z,17.28
2023-05-08T17:54:16.221Z,17.23
2023-05-08T17:56:44.418Z,17.06
2023-05-08T17:59:12.640Z,17.11
2023-05-08T18:01:42.585Z,17.03
2023-05-08T18:04:10.921Z,16.93
2023-05-08T18:06:39.161Z,16.91
2023-05-08T18:09:09.068Z,16.85
2023-05-08T18:11:37.351Z,16.82
2023-05-08T18:14:05.594Z,16.67
2023-05-08T18:16:33.901Z,16.49
2023-05-08T18:19:03.566Z,16.50
2023-05-08T18:21:31.865Z,16.48
2023-05-08T18:24:00.887Z,16.41
2023-05-08T18:26:29.254Z,16.43
2023-05-08T18:28:57.534Z,16.28
2023-05-08T18:31:25.829Z,16.16
2023-05-08T18:33:54.116Z,16.26
2023-05-08T18:36:23.806Z,16.18
2023-05-08T18:38:52.070Z,16.22
2023-05-08T18:41:21.096Z,16.22
2023-05-08T18:43:49.288Z,16.17
2023-05-08T18:46:17.779Z,16.07
2023-05-08T18:48:46.533Z,16.03
2023-05-08T18:51:14.780Z,15.92
2023-05-08T18:53:44.420Z,15.97
2023-05-08T18:56:12.729Z,15.89
2023-05-08T18:58:41.151Z,15.82
2023-05-08T19:01:09.538Z,15.72
2023-05-08T19:03:37.927Z,15.71
2023-05-08T19:06:06.730Z,15.53
2023-05-08T19:08:35.036Z,15.52
2023-05-08T19:11:04.652Z,15.55
2023-05-08T19:13:33.266Z,15.53
2023-05-08T19:16:01.649Z,15.52
2023-05-08T19:18:30.517Z,15.55
2023-05-08T19:20:58.923Z,15.44
2023-05-08T19:23:27.188Z,15.40
2023-05-08T19:25:55.755Z,15.36
2023-05-08T19:28:25.479Z,15.36
2023-05-08T19:30:53.894Z,15.29
2023-05-08T19:33:22.148Z,15.26
2023-05-08T19:35:50.521Z,15.22
2023-05-08T19:38:18.781Z,15.21
2023-05-08T19:40:56.666Z,15.22
2023-05-08T19:43:27.788Z,15.24
2023-05-08T19:45:57.081Z,15.18
2023-05-08T19:48:25.514Z,15.12
2023-05-08T19:50:55.037Z,15.12
2023-05-08T19:53:23.769Z,15.08
2023-05-08T19:55:52.038Z,15.02
2023-05-08T19:58:20.277Z,15.07
2023-05-08T20:00:51.413Z,14.99
2023-05-08T20:03:20.691Z,14.98
2023-05-08T20:05:49.166Z,14.95
2023-05-08T20:08:17.542Z,14.83
2023-05-08T20:10:48.867Z,14.89
2023-05-08T20:13:17.229Z,14.93
2023-05-08T20:15:45.612Z,14.87
2023-05-08T20:18:15.352Z,14.88
2023-05-08T20:20:45.097Z,14.91
2023-05-08T20:23:13.450Z,14.88
2023-05-08T20:25:41.806Z,14.85
2023-05-08T20:28:10.134Z,14.78
2023-05-08T20:30:38.490Z,14.89
2023-05-08T20:33:06.834Z,14.88
2023-05-08T20:35:36.503Z,14.85
2023-05-08T20:38:04.806Z,14.75
2023-05-08T20:40:33.104Z,14.74
2023-05-08T20:43:01.352Z,14.79
2023-05-08T20:45:29.704Z,14.77
2023-05-08T20:47:58.024Z,14.78
2023-05-08T20:50:26.499Z,14.77
2023-05-08T20:52:56.123Z,14.78
2023-05-08T20:55:24.659Z,14.73
2023-05-08T20:57:52.876Z,14.77
2023-05-08T21:00:21.463Z,14.72
2023-05-08T21:02:49.746Z,14.72
2023-05-08T21:05:18.640Z,14.75
2023-05-08T21:07:46.859Z,14.74
2023-05-08T21:10:16.711Z,14.69
2023-05-08T21:12:45.564Z,14.66
2023-05-08T21:15:14.124Z,14.66
2023-05-08T21:17:42.566Z,14.66
2023-05-08T21:20:12.022Z,14.68
2023-05-08T21:22:40.525Z,14.57
2023-05-08T21:25:19.223Z,14.53
2023-05-08T21:27:47.447Z,14.55
2023-05-08T21:30:16.490Z,14.52
2023-05-08T21:32:46.022Z,14.54
2023-05-08T21:35:15.757Z,14.52
2023-05-08T21:37:44.165Z,14.55
2023-05-08T21:40:12.850Z,14.52
2023-05-08T21:42:42.451Z,14.49
2023-05-08T21:45:11.866Z,14.42
2023-05-08T21:47:40.285Z,14.37
2023-05-08T21:50:09.982Z,14.42
2023-05-08T21:52:38.250Z,14.50
2023-05-08T21:55:08.733Z,14.49
2023-05-08T21:57:37.318Z,14.44
2023-05-08T22:00:09.398Z,14.41
2023-05-08T22:02:47.977Z,14.42
2023-05-08T22:05:16.474Z,14.47
2023-05-08T22:07:44.832Z,14.55
2023-05-08T22:10:13.914Z,14.51
2023-05-08T22:12:42.227Z,14.54
2023-05-08T22:15:25.525Z,14.50
2023-05-08T22:17:57.878Z,14.48
2023-05-08T22:20:26.229Z,14.42
2023-05-08T22:22:54.436Z,14.42
2023-05-08T22:25:22.696Z,14.33
2023-05-08T22:27:50.959Z,14.39
2023-05-08T22:30:20.802Z,14.43
2023-05-08T22:32:55.281Z,14.49
2023-05-08T22:35:24.670Z,14.38
2023-05-08T22:37:53.032Z,14.48
2023-05-08T22:40:21.850Z,14.44
2023-05-08T22:42:53.434Z,14.45
2023-05-08T22:45:23.399Z,14.43
2023-05-08T22:47:52.165Z,14.41
2023-05-08T22:50:20.633Z,14.36
2023-05-08T22:52:48.839Z,14.32
2023-05-08T22:55:17.255Z,14.28
2023-05-08T22:57:45.837Z,14.33
2023-05-08T23:00:15.303Z,14.20
2023-05-08T23:02:45.052Z,14.24
2023-05-08T23:05:14.362Z,14.18
2023-05-08T23:07:43.078Z,14.14
2023-05-08T23:10:12.074Z,14.09
2023-05-08T23:12:40.370Z,14.12
2023-05-08T23:15:09.847Z,14.10
2023-05-08T23:17:38.055Z,14.15
2023-05-08T23:20:09.284Z,14.10
2023-05-08T23:22:37.573Z,14.14
2023-05-08T23:25:06.650Z,14.12
2023-05-08T23:27:34.911Z,14.12
2023-05-08T23:30:03.478Z,14.09
2023-05-08T23:32:32.765Z,14.14
2023-05-08T23:35:01.066Z,14.18
2023-05-08T23:37:31.007Z,14.20
2023-05-08T23:39:59.321Z,14.19
2023-05-08T23:42:28.151Z,14.18
2023-05-08T23:44:57.141Z,14.06
2023-05-08T23:47:25.632Z,14.14
2023-05-08T23:49:53.879Z,14.18
2023-05-08T23:52:23.110Z,14.17
2023-05-08T23:54:52.854Z,14.24
2023-05-08T23:57:21.058Z,14.27
2023-05-08T23:59:49.258Z,14.14
